East Hardwick, Vermont
Current Conditions -  °F | °C
As of 4:35 PM on Saturday 25 Oct 2014 (Local Time) from KCDA Reporting Station
Overcast Overcast  
Wind Chill: 55°   Ceiling: 4400
Heat Index: 55°   Visibility: 10mi
Dew Point: 38°   Wind: 0mph
Humidity: 54%   Direction: NA
Pressure: 29.58"   Gusts: NA
Location:  44.52°N, 72.31°W
Report Text: KCDA 252035Z AUTO 00000KT 10SM OVC044 13/04 A2958 RMK AO2 T01260035
Loading
Personal Weather Stations






























Interactive Weather Map
Tropical Storm Tracking
New forecast layout! Learn more

10-Day Weather Forecast

Advertisements
Track Severe Weather on mobile